createdAt,value
2018-10-03T00:01:06.706Z,100165.13
2018-10-03T00:03:34.273Z,100165.64
2018-10-03T00:06:02.106Z,100165.25
2018-10-03T00:08:30.154Z,100166.11
2018-10-03T00:11:00.695Z,100170.73
2018-10-03T00:13:32.649Z,100159.70
2018-10-03T00:16:01.989Z,100164.53
2018-10-03T00:18:30.176Z,100165.63
2018-10-03T00:21:01.065Z,100164.92
2018-10-03T00:23:28.593Z,100167.11
2018-10-03T00:25:56.180Z,100176.31
2018-10-03T00:28:24.202Z,100178.86
2018-10-03T00:30:52.442Z,100174.23
2018-10-03T00:33:20.830Z,100188.80
2018-10-03T00:35:49.875Z,100202.86
2018-10-03T00:38:19.233Z,100203.37
2018-10-03T00:40:46.781Z,100212.56
2018-10-03T00:43:14.649Z,100214.26
2018-10-03T00:45:42.326Z,100223.84
2018-10-03T00:48:10.186Z,100230.05
2018-10-03T00:50:38.269Z,100231.73
2018-10-03T00:53:05.836Z,100230.05
2018-10-03T00:55:36.617Z,100222.39
2018-10-03T00:58:04.489Z,100220.59
2018-10-03T01:00:32.037Z,100221.92
2018-10-03T01:03:00.249Z,100223.25
2018-10-03T01:05:28.118Z,100218.86
2018-10-03T01:07:55.674Z,100219.25
2018-10-03T01:10:23.925Z,100217.05
2018-10-03T01:12:53.040Z,100216.19
2018-10-03T01:15:21.286Z,100208.69
2018-10-03T01:17:48.829Z,100208.33
2018-10-03T01:20:18.290Z,100202.13
2018-10-03T01:22:47.035Z,100211.98
2018-10-03T01:25:14.588Z,100208.92
2018-10-03T01:27:42.140Z,100205.30
2018-10-03T01:30:10.058Z,100204.80
2018-10-03T01:32:37.593Z,100205.66
2018-10-03T01:35:05.106Z,100210.02
2018-10-03T01:37:32.686Z,100210.02
2018-10-03T01:40:00.665Z,100214.03
2018-10-03T01:42:29.348Z,100222.39
2018-10-03T01:44:56.887Z,100218.03
2018-10-03T01:47:25.659Z,100219.37
2018-10-03T01:49:53.202Z,100220.46
2018-10-03T01:52:20.725Z,100219.50
2018-10-03T01:54:48.689Z,100217.33
2018-10-03T01:57:16.305Z,100217.47
2018-10-03T01:59:43.942Z,100220.87
2018-10-03T02:02:11.921Z,100233.61
2018-10-03T02:04:39.461Z,100235.31
2018-10-03T02:07:07.024Z,100229.73
2018-10-03T02:09:35.104Z,100227.93
2018-10-03T02:12:02.989Z,100237.16
2018-10-03T02:14:30.504Z,100236.54
2018-10-03T02:16:58.031Z,100240.55
2018-10-03T02:19:25.981Z,100232.53
2018-10-03T02:21:53.497Z,100240.04
2018-10-03T02:24:21.395Z,100247.47
2018-10-03T02:26:50.315Z,100250.37
2018-10-03T02:29:17.902Z,100246.27
2018-10-03T02:31:45.449Z,100244.44
2018-10-03T02:34:12.956Z,100242.61
2018-10-03T02:36:40.780Z,100249.90
2018-10-03T02:39:08.409Z,100253.18
2018-10-03T02:41:35.900Z,100256.68
2018-10-03T02:44:03.413Z,100259.23
2018-10-03T02:46:31.235Z,100260.20
2018-10-03T02:48:58.744Z,100259.48
2018-10-03T02:51:26.265Z,100265.77
2018-10-03T02:53:54.189Z,100264.94
2018-10-03T02:56:21.675Z,100261.05
2018-10-03T02:58:50.367Z,100262.73
2018-10-03T03:01:18.531Z,100268.94
2018-10-03T03:03:46.505Z,100270.63
2018-10-03T03:06:15.024Z,100269.55
2018-10-03T03:08:43.145Z,100270.98
2018-10-03T03:11:11.091Z,100262.40
2018-10-03T03:13:38.587Z,100266.61
2018-10-03T03:16:07.696Z,100269.67
2018-10-03T03:18:36.594Z,100266.50
2018-10-03T03:21:04.493Z,100268.09
2018-10-03T03:23:32.084Z,100267.59
2018-10-03T03:25:59.676Z,100273.91
2018-10-03T03:28:28.435Z,100262.28
2018-10-03T03:30:55.978Z,100275.11
2018-10-03T03:33:23.579Z,100288.17
2018-10-03T03:35:51.407Z,100289.14
2018-10-03T03:38:19.430Z,100298.11
2018-10-03T03:40:46.948Z,100298.58
2018-10-03T03:43:14.828Z,100299.59
2018-10-03T03:45:42.469Z,100296.06
2018-10-03T03:48:09.983Z,100294.50
2018-10-03T03:50:37.486Z,100294.28
2018-10-03T03:53:05.468Z,100298.75
2018-10-03T03:55:32.969Z,100296.23
2018-10-03T03:58:00.475Z,100298.28
2018-10-03T04:00:28.444Z,100301.55
2018-10-03T04:02:55.931Z,100296.83
2018-10-03T04:05:23.416Z,100300.58
2018-10-03T04:07:51.267Z,100292.10
2018-10-03T04:10:18.769Z,100289.68
2018-10-03T04:12:48.182Z,100291.84
2018-10-03T04:15:15.744Z,100286.39
2018-10-03T04:17:43.699Z,100293.06
2018-10-03T04:20:12.196Z,100289.56
2018-10-03T04:22:39.724Z,100296.23
2018-10-03T04:25:08.832Z,100306.77
2018-10-03T04:27:36.337Z,100306.30
2018-10-03T04:30:03.846Z,100309.44
2018-10-03T04:32:32.260Z,100321.33
2018-10-03T04:35:00.229Z,100325.45
2018-10-03T04:37:27.749Z,100328.27
2018-10-03T04:39:55.256Z,100336.63
2018-10-03T04:42:22.861Z,100337.45
2018-10-03T04:44:50.668Z,100339.16
2018-10-03T04:47:20.830Z,100337.09
2018-10-03T04:49:48.328Z,100338.20
2018-10-03T04:52:15.813Z,100348.38
2018-10-03T04:54:43.452Z,100350.47
2018-10-03T04:57:10.964Z,100348.63
2018-10-03T04:59:38.508Z,100352.63
2018-10-03T05:02:06.371Z,100352.98
2018-10-03T05:04:33.869Z,100360.89
2018-10-03T05:07:01.408Z,100357.60
2018-10-03T05:09:28.924Z,100365.86
2018-10-03T05:11:56.754Z,100368.42
2018-10-03T05:14:27.432Z,100371.80
2018-10-03T05:16:55.766Z,100365.85
2018-10-03T05:19:23.603Z,100378.62
2018-10-03T05:21:51.124Z,100378.37
2018-10-03T05:24:18.650Z,100375.45
2018-10-03T05:26:47.295Z,100374.73
2018-10-03T05:29:15.117Z,100383.32
2018-10-03T05:31:42.646Z,100383.58
2018-10-03T05:34:10.246Z,100391.84
2018-10-03T05:36:39.409Z,100391.33
2018-10-03T05:39:06.939Z,100388.66
2018-10-03T05:41:34.431Z,100399.84
2018-10-03T05:44:01.917Z,100399.95
2018-10-03T05:46:30.768Z,100411.96
2018-10-03T05:48:58.296Z,100420.80
2018-10-03T05:51:25.969Z,100424.34
2018-10-03T05:53:53.484Z,100416.22
2018-10-03T05:56:20.988Z,100425.56
2018-10-03T05:58:48.501Z,100427.26
2018-10-03T06:01:15.987Z,100432.59
2018-10-03T06:03:43.790Z,100440.60
2018-10-03T06:06:11.574Z,100437.94
2018-10-03T06:08:39.055Z,100433.93
2018-10-03T06:11:07.233Z,100448.25
2018-10-03T06:13:35.047Z,100444.97
2018-10-03T06:16:03.468Z,100450.77
2018-10-03T06:18:31.800Z,100458.52
2018-10-03T06:21:02.816Z,100459.03
2018-10-03T06:23:30.558Z,100464.58
2018-10-03T06:25:58.053Z,100466.06
2018-10-03T06:28:25.984Z,100470.44
2018-10-03T06:30:53.507Z,100476.86
2018-10-03T06:33:22.719Z,100486.81
2018-10-03T06:35:50.556Z,100481.88
2018-10-03T06:38:18.084Z,100489.02
2018-10-03T06:40:45.580Z,100491.32
2018-10-03T06:43:14.533Z,100493.38
2018-10-03T06:45:42.534Z,100489.16
2018-10-03T06:48:10.032Z,100495.95
2018-10-03T06:50:38.528Z,100494.14
2018-10-03T06:53:06.988Z,100489.89
2018-10-03T06:55:35.431Z,100502.63
2018-10-03T06:58:03.467Z,100515.77
2018-10-03T07:00:32.236Z,100523.30
2018-10-03T07:03:00.406Z,100526.09
2018-10-03T07:05:29.120Z,100521.36
2018-10-03T07:07:57.633Z,100540.67
2018-10-03T07:10:25.905Z,100545.29
2018-10-03T07:12:54.370Z,100545.91
2018-10-03T07:15:22.492Z,100551.39
2018-10-03T07:17:52.170Z,100559.88
2018-10-03T07:20:21.075Z,100561.97
2018-10-03T07:22:49.703Z,100566.19
2018-10-03T07:25:18.441Z,100571.79
2018-10-03T07:27:47.153Z,100580.06
2018-10-03T07:30:16.342Z,100584.42
2018-10-03T07:32:43.895Z,100578.97
2018-10-03T07:35:11.452Z,100580.80
2018-10-03T07:37:40.070Z,100586.76
2018-10-03T07:40:08.719Z,100583.36
2018-10-03T07:42:37.643Z,100595.42
2018-10-03T07:45:06.356Z,100593.97
2018-10-03T07:47:40.697Z,100594.08
2018-10-03T07:50:09.486Z,100609.02
2018-10-03T07:52:37.388Z,100608.18
2018-10-03T07:55:06.308Z,100605.02
2018-10-03T08:00:08.911Z,100619.86
2018-10-03T08:02:36.569Z,100630.44
2018-10-03T08:05:04.324Z,100631.14
2018-10-03T08:07:32.190Z,100632.83
2018-10-03T08:09:59.750Z,100636.34
2018-10-03T08:12:30.083Z,100638.66
2018-10-03T08:14:59.236Z,100638.62
2018-10-03T08:17:27.430Z,100635.56
2018-10-03T08:19:56.467Z,100639.45
2018-10-03T08:22:24.512Z,100634.42
2018-10-03T08:24:53.232Z,100637.34
2018-10-03T08:27:23.111Z,100636.27
2018-10-03T08:29:55.452Z,100643.20
2018-10-03T08:32:24.156Z,100651.45
2018-10-03T08:34:51.697Z,100648.40
2018-10-03T08:37:25.723Z,100657.98
2018-10-03T08:45:00.229Z,100679.57
2018-10-03T08:47:28.385Z,100672.88
2018-10-03T08:49:58.507Z,100678.31
2018-10-03T08:52:26.905Z,100686.60
2018-10-03T08:54:55.657Z,100679.58
2018-10-03T08:57:24.597Z,100682.91
2018-10-03T08:59:53.380Z,100679.37
2018-10-03T09:02:23.350Z,100678.48
2018-10-03T09:04:53.662Z,100679.39
2018-10-03T09:07:21.195Z,100681.80
2018-10-03T09:09:50.931Z,100685.13
2018-10-03T09:12:19.875Z,100684.72
2018-10-03T09:14:48.222Z,100687.22
2018-10-03T09:17:16.812Z,100692.03
2018-10-03T09:19:55.359Z,100694.02
2018-10-03T09:22:23.663Z,100698.32
2018-10-03T09:24:52.878Z,100705.27
2018-10-03T09:27:22.266Z,100699.84
2018-10-03T09:29:50.760Z,100706.20
2018-10-03T09:32:18.582Z,100714.66
2018-10-03T09:34:47.341Z,100716.45
2018-10-03T09:37:14.852Z,100719.88
2018-10-03T09:39:46.375Z,100721.45
2018-10-03T09:42:14.542Z,100730.61
2018-10-03T09:44:43.704Z,100726.92
2018-10-03T09:47:12.083Z,100735.77
2018-10-03T09:49:40.206Z,100730.83
2018-10-03T09:52:09.019Z,100740.80
2018-10-03T09:54:37.238Z,100743.73
2018-10-03T09:57:06.670Z,100742.73
2018-10-03T09:59:38.799Z,100753.46
2018-10-03T10:02:10.472Z,100758.27
2018-10-03T10:04:38.502Z,100752.88
2018-10-03T10:07:06.782Z,100759.47
2018-10-03T10:09:35.427Z,100753.27
2018-10-03T10:12:04.621Z,100754.83
2018-10-03T10:14:33.413Z,100754.22
2018-10-03T10:17:02.074Z,100742.55
2018-10-03T10:19:30.599Z,100748.89
2018-10-03T10:21:58.624Z,100739.98
2018-10-03T10:24:26.488Z,100751.77
2018-10-03T10:26:54.000Z,100759.24
2018-10-03T10:29:22.557Z,100754.87
2018-10-03T10:31:54.154Z,100754.86
2018-10-03T10:34:22.608Z,100760.07
2018-10-03T10:36:50.128Z,100762.33
2018-10-03T10:39:21.300Z,100767.34
2018-10-03T10:41:50.647Z,100765.74
2018-10-03T10:44:19.136Z,100775.77
2018-10-03T10:46:47.387Z,100772.03
2018-10-03T10:49:15.526Z,100770.61
2018-10-03T10:51:44.585Z,100764.25
2018-10-03T10:54:12.392Z,100770.45
2018-10-03T10:56:41.248Z,100770.00
2018-10-03T10:59:10.351Z,100767.45
2018-10-03T11:01:39.836Z,100770.70
2018-10-03T11:04:09.704Z,100762.19
2018-10-03T11:06:39.081Z,100769.09
2018-10-03T11:09:07.691Z,100769.81
2018-10-03T11:11:36.621Z,100770.20
2018-10-03T11:14:05.022Z,100776.76
2018-10-03T11:16:35.205Z,100784.69
2018-10-03T11:19:03.548Z,100790.37
2018-10-03T11:21:31.771Z,100800.67
2018-10-03T11:24:01.244Z,100799.89
2018-10-03T11:26:30.264Z,100795.34
2018-10-03T11:28:58.612Z,100804.92
2018-10-03T11:31:29.276Z,100806.75
2018-10-03T11:34:00.462Z,100800.98
2018-10-03T11:36:30.077Z,100802.73
2018-10-03T11:39:02.690Z,100788.81
2018-10-03T11:41:32.537Z,100783.00
2018-10-03T11:44:01.571Z,100787.67
2018-10-03T11:46:32.631Z,100797.92
2018-10-03T11:49:01.484Z,100789.31
2018-10-03T11:51:30.770Z,100793.97
2018-10-03T11:54:02.232Z,100788.45
2018-10-03T11:56:30.733Z,100787.94
2018-10-03T11:59:00.464Z,100794.16
2018-10-03T12:01:28.610Z,100798.10
2018-10-03T12:03:57.764Z,100800.27
2018-10-03T12:06:27.545Z,100805.47
2018-10-03T12:08:56.531Z,100796.06
2018-10-03T12:11:27.276Z,100791.06
2018-10-03T12:13:56.428Z,100789.40
2018-10-03T12:16:25.347Z,100784.95
2018-10-03T12:18:54.240Z,100784.55
2018-10-03T12:21:22.543Z,100782.51
2018-10-03T12:23:54.840Z,100786.25
2018-10-03T12:26:22.369Z,100794.63
2018-10-03T12:28:50.590Z,100793.72
2018-10-03T12:31:24.184Z,100805.08
2018-10-03T12:33:53.421Z,100811.02
2018-10-03T12:36:22.347Z,100806.13
2018-10-03T12:38:50.176Z,100808.19
2018-10-03T12:41:21.345Z,100808.07
2018-10-03T12:43:49.664Z,100806.52
2018-10-03T12:46:19.276Z,100801.31
2018-10-03T12:48:47.895Z,100804.83
2018-10-03T12:51:15.435Z,100806.02
2018-10-03T12:53:44.697Z,100809.06
2018-10-03T12:56:13.971Z,100807.82
2018-10-03T12:58:42.275Z,100809.50
2018-10-03T13:01:10.479Z,100811.09
2018-10-03T13:03:38.923Z,100806.19
2018-10-03T13:06:10.774Z,100812.65
2018-10-03T13:08:46.325Z,100807.48
2018-10-03T13:11:14.631Z,100802.00
2018-10-03T13:13:42.663Z,100802.20
2018-10-03T13:16:12.088Z,100809.45
2018-10-03T13:18:40.266Z,100810.78
2018-10-03T13:21:08.347Z,100803.06
2018-10-03T13:23:37.843Z,100799.89
2018-10-03T13:26:05.463Z,100807.58
2018-10-03T13:28:35.021Z,100812.34
2018-10-03T13:31:06.818Z,100809.56
2018-10-03T13:33:36.374Z,100810.95
2018-10-03T13:36:07.004Z,100812.12
2018-10-03T13:38:37.377Z,100813.98
2018-10-03T13:41:07.383Z,100818.82
2018-10-03T13:43:35.878Z,100810.59
2018-10-03T13:46:06.941Z,100808.48
2018-10-03T13:48:34.739Z,100808.96
2018-10-03T13:51:05.255Z,100811.55
2018-10-03T13:53:35.284Z,100805.92
2018-10-03T13:56:03.779Z,100805.66
2018-10-03T13:58:34.526Z,100806.94
2018-10-03T14:01:05.799Z,100808.75
2018-10-03T14:03:35.373Z,100811.22
2018-10-03T14:06:04.075Z,100807.99
2018-10-03T14:08:36.400Z,100804.93
2018-10-03T14:11:08.469Z,100803.23
2018-10-03T14:13:38.172Z,100801.80
2018-10-03T14:16:10.079Z,100804.00
2018-10-03T14:21:11.703Z,100815.66
2018-10-03T14:23:39.199Z,100816.16
2018-10-03T14:26:08.452Z,100812.12
2018-10-03T14:28:47.343Z,100820.91
2018-10-03T14:31:15.692Z,100816.59
2018-10-03T14:33:43.567Z,100808.89
2018-10-03T14:36:11.743Z,100807.06
2018-10-03T14:38:39.281Z,100806.87
2018-10-03T14:41:08.814Z,100804.95
2018-10-03T14:43:37.133Z,100817.52
2018-10-03T14:46:05.160Z,100815.06
2018-10-03T14:48:33.617Z,100811.22
2018-10-03T14:51:01.624Z,100821.13
2018-10-03T14:53:32.654Z,100806.77
2018-10-03T14:56:01.010Z,100813.17
2018-10-03T14:58:28.682Z,100808.52
2018-10-03T15:00:57.397Z,100808.17
2018-10-03T15:03:27.616Z,100813.44
2018-10-03T15:05:57.445Z,100814.55
2018-10-03T15:08:25.573Z,100809.58
2018-10-03T15:10:53.442Z,100816.69
2018-10-03T15:13:20.959Z,100807.91
2018-10-03T15:15:48.480Z,100817.95
2018-10-03T15:18:18.572Z,100814.24
2018-10-03T15:20:46.755Z,100813.70
2018-10-03T15:25:53.325Z,100808.30
2018-10-03T15:28:20.837Z,100798.26
2018-10-03T15:30:50.278Z,100805.12
2018-10-03T15:33:27.512Z,100812.67
2018-10-03T15:35:55.003Z,100811.30
2018-10-03T15:38:23.667Z,100812.23
2018-10-03T15:40:51.604Z,100814.36
2018-10-03T15:43:19.923Z,100812.56
2018-10-03T15:45:51.564Z,100812.97
2018-10-03T15:48:22.859Z,100821.53
2018-10-03T15:50:50.356Z,100818.31
2018-10-03T15:53:18.450Z,100818.16
2018-10-03T15:55:46.385Z,100819.03
2018-10-03T15:58:17.464Z,100817.13
2018-10-03T16:00:47.801Z,100824.27
2018-10-03T16:03:22.516Z,100824.17
2018-10-03T16:05:56.211Z,100829.33
2018-10-03T16:08:25.140Z,100831.80
2018-10-03T16:10:52.660Z,100829.73
2018-10-03T16:13:22.750Z,100834.76
2018-10-03T16:15:52.350Z,100832.45
2018-10-03T16:18:21.299Z,100840.37
2018-10-03T16:20:50.298Z,100847.45
2018-10-03T16:23:19.592Z,100844.91
2018-10-03T16:25:50.791Z,100841.38
2018-10-03T16:28:19.416Z,100842.37
2018-10-03T16:30:49.340Z,100845.89
2018-10-03T16:33:19.403Z,100842.86
2018-10-03T16:35:50.412Z,100841.62
2018-10-03T16:38:18.379Z,100846.98
2018-10-03T16:43:25.264Z,100856.48
2018-10-03T16:45:55.675Z,100854.03
2018-10-03T16:48:23.911Z,100863.87
2018-10-03T16:50:53.508Z,100869.09
2018-10-03T16:53:22.639Z,100859.10
2018-10-03T16:55:50.995Z,100869.80
2018-10-03T16:58:19.800Z,100871.13
2018-10-03T17:00:48.483Z,100878.65
2018-10-03T17:03:20.395Z,100874.37
2018-10-03T17:05:48.604Z,100877.03
2018-10-03T17:08:18.315Z,100882.48
2018-10-03T17:10:52.448Z,100889.73
2018-10-03T17:13:21.852Z,100887.55
2018-10-03T17:15:49.590Z,100887.02
2018-10-03T17:18:17.943Z,100892.61
2018-10-03T17:20:46.257Z,100888.55
2018-10-03T17:23:14.515Z,100892.50
2018-10-03T17:25:42.800Z,100893.32
2018-10-03T17:28:12.306Z,100900.24
2018-10-03T17:30:41.339Z,100903.26
2018-10-03T17:33:15.487Z,100901.29
2018-10-03T17:35:43.818Z,100906.47
2018-10-03T17:38:13.302Z,100909.98
2018-10-03T17:40:41.176Z,100910.55
2018-10-03T17:43:09.655Z,100913.20
2018-10-03T17:45:39.911Z,100919.75
2018-10-03T17:48:12.504Z,100920.81
2018-10-03T17:50:50.263Z,100925.02
2018-10-03T17:53:19.569Z,100933.27
2018-10-03T17:55:48.148Z,100932.64
2018-10-03T17:58:16.318Z,100929.33
2018-10-03T18:00:46.045Z,100927.86
2018-10-03T18:03:14.859Z,100938.73
2018-10-03T18:05:42.590Z,100938.60
2018-10-03T18:08:12.395Z,100953.13
2018-10-03T18:13:16.403Z,100947.37
2018-10-03T18:15:46.124Z,100949.71
2018-10-03T18:18:15.915Z,100950.25
2018-10-03T18:20:49.309Z,100948.09
2018-10-03T18:23:20.633Z,100949.80
2018-10-03T18:25:55.512Z,100950.77
2018-10-03T18:28:25.843Z,100947.35
2018-10-03T18:30:54.540Z,100947.35
2018-10-03T18:33:23.251Z,100949.42
2018-10-03T18:35:52.328Z,100949.23
2018-10-03T18:38:21.940Z,100949.59
2018-10-03T18:40:51.049Z,100945.59
2018-10-03T18:43:20.659Z,100947.49
2018-10-03T18:45:50.454Z,100956.47
2018-10-03T18:48:19.368Z,100948.22
2018-10-03T18:50:49.239Z,100952.80
2018-10-03T18:53:19.424Z,100953.30
2018-10-03T18:55:49.513Z,100953.66
2018-10-03T18:58:19.399Z,100956.23
2018-10-03T19:00:48.042Z,100958.58
2018-10-03T19:03:18.857Z,100964.66
2018-10-03T19:05:54.149Z,100964.33
2018-10-03T19:08:23.366Z,100964.59
2018-10-03T19:10:53.599Z,100962.66
2018-10-03T19:13:23.194Z,100967.91
2018-10-03T19:15:50.717Z,100968.27
2018-10-03T19:18:24.372Z,100964.16
2018-10-03T19:20:56.583Z,100960.26
2018-10-03T19:26:04.633Z,100969.52
2018-10-03T19:28:39.319Z,100963.20
2018-10-03T19:33:52.275Z,100961.09
2018-10-03T19:36:24.834Z,100961.83
2018-10-03T19:41:26.299Z,100967.42
2018-10-03T19:43:57.195Z,100966.42
2018-10-03T19:46:26.219Z,100969.52
2018-10-03T19:48:55.100Z,100977.02
2018-10-03T19:51:24.557Z,100976.84
2018-10-03T19:53:56.478Z,100975.73
2018-10-03T19:56:24.122Z,100976.89
2018-10-03T19:58:56.689Z,100972.61
2018-10-03T20:01:29.376Z,100972.47
2018-10-03T20:04:00.368Z,100972.42
2018-10-03T20:06:28.145Z,100975.50
2018-10-03T20:08:58.024Z,100970.58
2018-10-03T20:11:26.816Z,100974.80
2018-10-03T20:13:55.610Z,100970.62
2018-10-03T20:16:24.911Z,100967.80
2018-10-03T20:18:54.383Z,100970.66
2018-10-03T20:21:22.519Z,100968.59
2018-10-03T20:23:50.839Z,100973.27
2018-10-03T20:26:18.461Z,100973.09
2018-10-03T20:28:47.763Z,100976.84
2018-10-03T20:31:15.879Z,100981.03
2018-10-03T20:33:44.098Z,100977.69
2018-10-03T20:36:13.274Z,100980.20
2018-10-03T20:38:41.502Z,100980.88
2018-10-03T20:41:09.884Z,100984.69
2018-10-03T20:43:40.024Z,100987.95
2018-10-03T20:46:08.304Z,100982.34
2018-10-03T20:48:36.670Z,100979.98
2018-10-03T20:51:08.221Z,100981.89
2018-10-03T20:53:35.817Z,100984.00
2018-10-03T20:56:04.432Z,100989.64
2018-10-03T20:58:35.369Z,100988.98
2018-10-03T21:01:03.756Z,100992.23
2018-10-03T21:03:31.772Z,100999.08
2018-10-03T21:06:01.463Z,101003.67
2018-10-03T21:08:29.490Z,100998.92
2018-10-03T21:10:59.145Z,101007.88
2018-10-03T21:13:30.459Z,101000.55
2018-10-03T21:15:59.422Z,101006.56
2018-10-03T21:18:26.897Z,101003.61
2018-10-03T21:20:56.603Z,101003.78
2018-10-03T21:23:25.480Z,101005.23
2018-10-03T21:25:53.263Z,101004.45
2018-10-03T21:28:25.575Z,101002.87
2018-10-03T21:30:53.370Z,101011.91
2018-10-03T21:33:20.848Z,101012.09
2018-10-03T21:38:25.940Z,101011.55
2018-10-03T21:40:54.394Z,101016.59
2018-10-03T21:43:21.978Z,101009.64
2018-10-03T21:45:50.329Z,101020.80
2018-10-03T21:48:18.211Z,101018.22
2018-10-03T21:50:47.733Z,101017.34
2018-10-03T21:53:18.379Z,101009.94
2018-10-03T21:55:48.100Z,101019.84
2018-10-03T21:58:16.387Z,101019.17
2018-10-03T22:00:50.041Z,101013.64
2018-10-03T22:03:17.894Z,101004.98
2018-10-03T22:05:46.450Z,101017.27
2018-10-03T22:08:13.934Z,101018.42
2018-10-03T22:10:41.923Z,101015.55
2018-10-03T22:13:10.096Z,101014.42
2018-10-03T22:15:37.615Z,101020.21
2018-10-03T22:18:05.512Z,101018.88
2018-10-03T22:20:33.754Z,101019.75
2018-10-03T22:23:03.262Z,101021.46
2018-10-03T22:25:39.943Z,101020.51
2018-10-03T22:28:08.007Z,101023.08
2018-10-03T22:30:36.106Z,101025.45
2018-10-03T22:33:06.516Z,101022.80
2018-10-03T22:35:35.389Z,101015.92
2018-10-03T22:38:03.035Z,101016.05
2018-10-03T22:40:30.823Z,101017.92
2018-10-03T22:42:58.370Z,101024.32
2018-10-03T22:45:25.925Z,101024.03
2018-10-03T22:47:54.542Z,101027.15
2018-10-03T22:50:22.139Z,101021.83
2018-10-03T22:52:51.683Z,101026.57
2018-10-03T22:55:23.045Z,101026.98
2018-10-03T22:57:51.282Z,101024.12
2018-10-03T23:00:20.532Z,101026.70
2018-10-03T23:02:49.377Z,101032.28
2018-10-03T23:05:19.148Z,101030.39
2018-10-03T23:07:46.731Z,101029.14
2018-10-03T23:10:14.329Z,101027.33
2018-10-03T23:12:44.957Z,101033.30
2018-10-03T23:15:13.744Z,101033.81
2018-10-03T23:17:42.113Z,101028.39
2018-10-03T23:20:10.578Z,101035.58
2018-10-03T23:22:38.121Z,101034.63
2018-10-03T23:25:05.709Z,101030.94
2018-10-03T23:27:33.825Z,101042.45
2018-10-03T23:30:05.311Z,101040.55
2018-10-03T23:32:34.419Z,101045.03
2018-10-03T23:35:03.614Z,101030.10
2018-10-03T23:37:31.169Z,101036.16
2018-10-03T23:39:59.158Z,101034.80
2018-10-03T23:42:26.740Z,101033.17
2018-10-03T23:44:55.473Z,101034.05
2018-10-03T23:47:23.213Z,101032.80
2018-10-03T23:49:51.223Z,101034.63
2018-10-03T23:52:18.793Z,101035.53
2018-10-03T23:54:46.918Z,101038.69
2018-10-03T23:57:14.853Z,101044.39
2018-10-03T23:59:42.601Z,101041.73
